sensor_id;sensor_type;location;lat;lon;timestamp;temperature;humidity
23729;DHT22;12045;60.214;24.724;2024-01-07T00:02:16;-17.10;99.90
23729;DHT22;12045;60.214;24.724;2024-01-07T00:04:44;-17.10;99.90
23729;DHT22;12045;60.214;24.724;2024-01-07T00:07:13;-17.10;99.90
23729;DHT22;12045;60.214;24.724;2024-01-07T00:09:42;-17.10;99.90
23729;DHT22;12045;60.214;24.724;2024-01-07T00:12:11;-17.10;99.90
23729;DHT22;12045;60.214;24.724;2024-01-07T00:14:39;-17.20;99.90
23729;DHT22;12045;60.214;24.724;2024-01-07T00:17:10;-17.20;99.90
23729;DHT22;12045;60.214;24.724;2024-01-07T00:19:38;-17.20;99.90
23729;DHT22;12045;60.214;24.724;2024-01-07T00:22:08;-17.20;99.90
23729;DHT22;12045;60.214;24.724;2024-01-07T00:24:37;-17.10;99.90
23729;DHT22;12045;60.214;24.724;2024-01-07T00:27:04;-17.10;99.90
23729;DHT22;12045;60.214;24.724;2024-01-07T00:29:37;-18.10;99.90
23729;DHT22;12045;60.214;24.724;2024-01-07T00:32:05;-17.30;99.90
23729;DHT22;12045;60.214;24.724;2024-01-07T00:34:36;-17.30;99.90
23729;DHT22;12045;60.214;24.724;2024-01-07T00:37:05;-17.40;99.90
23729;DHT22;12045;60.214;24.724;2024-01-07T00:39:32;-17.30;99.90
23729;DHT22;12045;60.214;24.724;2024-01-07T00:42:00;-17.30;99.90
23729;DHT22;12045;60.214;24.724;2024-01-07T00:44:30;-17.40;99.90
23729;DHT22;12045;60.214;24.724;2024-01-07T00:46:59;-17.10;99.90
23729;DHT22;12045;60.214;24.724;2024-01-07T00:49:29;-17.30;99.90
23729;DHT22;12045;60.214;24.724;2024-01-07T00:51:59;-17.40;99.90
23729;DHT22;12045;60.214;24.724;2024-01-07T00:54:26;-17.30;99.90
23729;DHT22;12045;60.214;24.724;2024-01-07T00:56:54;-17.40;99.90
23729;DHT22;12045;60.214;24.724;2024-01-07T00:59:24;-17.40;99.90
23729;DHT22;12045;60.214;24.724;2024-01-07T01:01:51;-17.50;99.90
23729;DHT22;12045;60.214;24.724;2024-01-07T01:04:19;-17.60;99.90
23729;DHT22;12045;60.214;24.724;2024-01-07T01:06:47;-17.40;99.90
23729;DHT22;12045;60.214;24.724;2024-01-07T01:09:16;-17.50;99.90
23729;DHT22;12045;60.214;24.724;2024-01-07T01:11:44;-17.30;99.90
23729;DHT22;12045;60.214;24.724;2024-01-07T01:14:14;-17.20;99.90
23729;DHT22;12045;60.214;24.724;2024-01-07T01:16:42;-17.30;99.90
23729;DHT22;12045;60.214;24.724;2024-01-07T01:19:11;-17.40;99.90
23729;DHT22;12045;60.214;24.724;2024-01-07T01:21:39;-17.60;99.90
23729;DHT22;12045;60.214;24.724;2024-01-07T01:24:07;-17.50;99.90
23729;DHT22;12045;60.214;24.724;2024-01-07T01:26:36;-17.30;99.90
23729;DHT22;12045;60.214;24.724;2024-01-07T01:29:04;-16.80;99.90
23729;DHT22;12045;60.214;24.724;2024-01-07T01:31:31;-17.30;99.90
23729;DHT22;12045;60.214;24.724;2024-01-07T01:33:59;-17.40;99.90
23729;DHT22;12045;60.214;24.724;2024-01-07T01:36:31;-17.30;99.90
23729;DHT22;12045;60.214;24.724;2024-01-07T01:38:59;-17.40;99.90
23729;DHT22;12045;60.214;24.724;2024-01-07T01:41:30;-17.50;99.90
23729;DHT22;12045;60.214;24.724;2024-01-07T01:43:59;-17.40;99.90
23729;DHT22;12045;60.214;24.724;2024-01-07T01:46:29;-17.30;99.90
23729;DHT22;12045;60.214;24.724;2024-01-07T01:48:59;-17.40;99.90
23729;DHT22;12045;60.214;24.724;2024-01-07T01:51:30;-17.40;99.90
23729;DHT22;12045;60.214;24.724;2024-01-07T01:53:58;-17.30;99.90
23729;DHT22;12045;60.214;24.724;2024-01-07T01:56:30;-17.40;99.90
23729;DHT22;12045;60.214;24.724;2024-01-07T01:58:59;-17.40;99.90
23729;DHT22;12045;60.214;24.724;2024-01-07T02:01:28;-17.40;99.90
23729;DHT22;12045;60.214;24.724;2024-01-07T02:03:57;-17.40;99.90
23729;DHT22;12045;60.214;24.724;2024-01-07T02:06:26;-17.40;99.90
23729;DHT22;12045;60.214;24.724;2024-01-07T02:08:56;-17.20;99.90
23729;DHT22;12045;60.214;24.724;2024-01-07T02:11:23;-17.40;99.90
23729;DHT22;12045;60.214;24.724;2024-01-07T02:13:52;-17.30;99.90
23729;DHT22;12045;60.214;24.724;2024-01-07T02:16:23;-17.20;99.90
23729;DHT22;12045;60.214;24.724;2024-01-07T02:18:51;-17.30;99.90
23729;DHT22;12045;60.214;24.724;2024-01-07T02:21:20;-17.30;99.90
23729;DHT22;12045;60.214;24.724;2024-01-07T02:23:50;-17.10;99.90
23729;DHT22;12045;60.214;24.724;2024-01-07T02:26:18;-17.20;99.90
23729;DHT22;12045;60.214;24.724;2024-01-07T02:28:48;-16.70;99.90
23729;DHT22;12045;60.214;24.724;2024-01-07T02:31:16;-17.40;99.90
23729;DHT22;12045;60.214;24.724;2024-01-07T02:33:43;-17.40;99.90
23729;DHT22;12045;60.214;24.724;2024-01-07T02:36:19;-17.40;99.90
23729;DHT22;12045;60.214;24.724;2024-01-07T02:38:48;-17.40;99.90
23729;DHT22;12045;60.214;24.724;2024-01-07T02:41:19;-17.40;99.90
23729;DHT22;12045;60.214;24.724;2024-01-07T02:43:48;-17.40;99.90
23729;DHT22;12045;60.214;24.724;2024-01-07T02:46:16;-17.30;99.90
23729;DHT22;12045;60.214;24.724;2024-01-07T02:48:45;-17.40;99.90
23729;DHT22;12045;60.214;24.724;2024-01-07T02:51:12;-17.50;99.90
23729;DHT22;12045;60.214;24.724;2024-01-07T02:53:40;-17.00;99.90
23729;DHT22;12045;60.214;24.724;2024-01-07T02:56:07;-17.50;99.90
23729;DHT22;12045;60.214;24.724;2024-01-07T02:58:38;-17.00;99.90
23729;DHT22;12045;60.214;24.724;2024-01-07T03:01:10;-17.40;99.90
23729;DHT22;12045;60.214;24.724;2024-01-07T03:03:39;-17.10;99.90
23729;DHT22;12045;60.214;24.724;2024-01-07T03:06:08;-17.40;99.90
23729;DHT22;12045;60.214;24.724;2024-01-07T03:08:36;-17.70;99.90
23729;DHT22;12045;60.214;24.724;2024-01-07T03:11:07;-17.70;99.90
23729;DHT22;12045;60.214;24.724;2024-01-07T03:13:36;-17.60;99.90
23729;DHT22;12045;60.214;24.724;2024-01-07T03:16:04;-17.30;99.90
23729;DHT22;12045;60.214;24.724;2024-01-07T03:18:32;-17.50;99.90
23729;DHT22;12045;60.214;24.724;2024-01-07T03:21:01;-17.70;99.90
23729;DHT22;12045;60.214;24.724;2024-01-07T03:23:30;-17.70;99.90
23729;DHT22;12045;60.214;24.724;2024-01-07T03:25:59;-17.60;99.90
23729;DHT22;12045;60.214;24.724;2024-01-07T03:28:28;-17.60;99.90
23729;DHT22;12045;60.214;24.724;2024-01-07T03:30:56;-17.60;99.90
23729;DHT22;12045;60.214;24.724;2024-01-07T03:33:26;-17.40;99.90
23729;DHT22;12045;60.214;24.724;2024-01-07T03:35:53;-17.70;99.90
23729;DHT22;12045;60.214;24.724;2024-01-07T03:38:22;-17.50;99.90
23729;DHT22;12045;60.214;24.724;2024-01-07T03:40:50;-17.40;99.90
23729;DHT22;12045;60.214;24.724;2024-01-07T03:43:18;-17.70;99.90
23729;DHT22;12045;60.214;24.724;2024-01-07T03:45:47;-17.50;99.90
23729;DHT22;12045;60.214;24.724;2024-01-07T03:48:18;-17.60;99.90
23729;DHT22;12045;60.214;24.724;2024-01-07T03:50:48;-17.10;99.90
23729;DHT22;12045;60.214;24.724;2024-01-07T03:53:17;-17.30;99.90
23729;DHT22;12045;60.214;24.724;2024-01-07T03:55:45;-18.00;99.90
23729;DHT22;12045;60.214;24.724;2024-01-07T03:58:14;-17.80;99.90
23729;DHT22;12045;60.214;24.724;2024-01-07T04:00:43;-17.80;99.90
23729;DHT22;12045;60.214;24.724;2024-01-07T04:03:12;-17.90;99.90
23729;DHT22;12045;60.214;24.724;2024-01-07T04:05:40;-17.50;99.90
23729;DHT22;12045;60.214;24.724;2024-01-07T04:08:11;-17.80;99.90
23729;DHT22;12045;60.214;24.724;2024-01-07T04:10:40;-18.00;99.90
23729;DHT22;12045;60.214;24.724;2024-01-07T04:13:07;-17.40;99.90
23729;DHT22;12045;60.214;24.724;2024-01-07T04:15:35;-17.50;99.90
23729;DHT22;12045;60.214;24.724;2024-01-07T04:18:04;-17.40;99.90
23729;DHT22;12045;60.214;24.724;2024-01-07T04:20:33;-18.00;99.90
23729;DHT22;12045;60.214;24.724;2024-01-07T04:23:01;-17.70;99.90
23729;DHT22;12045;60.214;24.724;2024-01-07T04:25:31;-17.60;99.90
23729;DHT22;12045;60.214;24.724;2024-01-07T04:28:00;-17.60;99.90
23729;DHT22;12045;60.214;24.724;2024-01-07T04:30:28;-18.00;99.90
23729;DHT22;12045;60.214;24.724;2024-01-07T04:32:57;-17.70;99.90
23729;DHT22;12045;60.214;24.724;2024-01-07T04:35:28;-18.20;99.90
23729;DHT22;12045;60.214;24.724;2024-01-07T04:37:58;-18.00;99.90
23729;DHT22;12045;60.214;24.724;2024-01-07T04:40:27;-18.30;99.90
23729;DHT22;12045;60.214;24.724;2024-01-07T04:42:55;-17.60;99.90
23729;DHT22;12045;60.214;24.724;2024-01-07T04:45:23;-17.70;99.90
23729;DHT22;12045;60.214;24.724;2024-01-07T04:50:20;-18.30;99.90
23729;DHT22;12045;60.214;24.724;2024-01-07T04:55:18;-18.20;99.90
23729;DHT22;12045;60.214;24.724;2024-01-07T04:57:46;-18.00;99.90
23729;DHT22;12045;60.214;24.724;2024-01-07T05:00:15;-18.40;99.90
23729;DHT22;12045;60.214;24.724;2024-01-07T05:02:44;-18.30;99.90
23729;DHT22;12045;60.214;24.724;2024-01-07T05:05:12;-17.60;99.90
23729;DHT22;12045;60.214;24.724;2024-01-07T05:07:42;-18.40;99.90
23729;DHT22;12045;60.214;24.724;2024-01-07T05:10:10;-17.80;99.90
23729;DHT22;12045;60.214;24.724;2024-01-07T05:12:39;-18.40;99.90
23729;DHT22;12045;60.214;24.724;2024-01-07T05:15:08;-18.40;99.90
23729;DHT22;12045;60.214;24.724;2024-01-07T05:17:36;-18.40;99.90
23729;DHT22;12045;60.214;24.724;2024-01-07T05:20:04;-18.00;99.90
23729;DHT22;12045;60.214;24.724;2024-01-07T05:25:03;-18.10;99.90
23729;DHT22;12045;60.214;24.724;2024-01-07T05:27:32;-18.30;99.90
23729;DHT22;12045;60.214;24.724;2024-01-07T05:30:03;-17.70;99.90
23729;DHT22;12045;60.214;24.724;2024-01-07T05:32:31;-18.00;99.90
23729;DHT22;12045;60.214;24.724;2024-01-07T05:34:59;-18.00;99.90
23729;DHT22;12045;60.214;24.724;2024-01-07T05:37:28;-18.20;99.90
23729;DHT22;12045;60.214;24.724;2024-01-07T05:39:57;-17.30;99.90
23729;DHT22;12045;60.214;24.724;2024-01-07T05:42:25;-18.20;99.90
23729;DHT22;12045;60.214;24.724;2024-01-07T05:44:57;-17.50;99.90
23729;DHT22;12045;60.214;24.724;2024-01-07T05:47:27;-17.60;99.90
23729;DHT22;12045;60.214;24.724;2024-01-07T05:49:54;-18.10;99.90
23729;DHT22;12045;60.214;24.724;2024-01-07T05:52:22;-18.10;99.90
23729;DHT22;12045;60.214;24.724;2024-01-07T05:54:51;-17.80;99.90
23729;DHT22;12045;60.214;24.724;2024-01-07T05:57:19;-17.60;99.90
23729;DHT22;12045;60.214;24.724;2024-01-07T05:59:46;-17.60;99.90
23729;DHT22;12045;60.214;24.724;2024-01-07T06:02:18;-17.50;99.90
23729;DHT22;12045;60.214;24.724;2024-01-07T06:04:46;-17.50;99.90
23729;DHT22;12045;60.214;24.724;2024-01-07T06:07:16;-17.90;99.90
23729;DHT22;12045;60.214;24.724;2024-01-07T06:09:45;-17.60;99.90
23729;DHT22;12045;60.214;24.724;2024-01-07T06:12:13;-18.20;99.90
23729;DHT22;12045;60.214;24.724;2024-01-07T06:14:41;-18.20;99.90
23729;DHT22;12045;60.214;24.724;2024-01-07T06:17:09;-17.30;99.90
23729;DHT22;12045;60.214;24.724;2024-01-07T06:19:38;-17.50;99.90
23729;DHT22;12045;60.214;24.724;2024-01-07T06:22:06;-17.40;99.90
23729;DHT22;12045;60.214;24.724;2024-01-07T06:24:33;-18.10;99.90
23729;DHT22;12045;60.214;24.724;2024-01-07T06:27:03;-18.00;99.90
23729;DHT22;12045;60.214;24.724;2024-01-07T06:29:31;-18.10;99.90
23729;DHT22;12045;60.214;24.724;2024-01-07T06:32:00;-17.60;99.90
23729;DHT22;12045;60.214;24.724;2024-01-07T06:34:27;-17.40;99.90
23729;DHT22;12045;60.214;24.724;2024-01-07T06:36:58;-17.20;99.90
23729;DHT22;12045;60.214;24.724;2024-01-07T06:39:26;-17.60;99.90
23729;DHT22;12045;60.214;24.724;2024-01-07T06:41:56;-17.60;99.90
23729;DHT22;12045;60.214;24.724;2024-01-07T06:44:24;-17.70;99.90
23729;DHT22;12045;60.214;24.724;2024-01-07T06:46:52;-17.50;99.90
23729;DHT22;12045;60.214;24.724;2024-01-07T06:49:21;-17.70;99.90
23729;DHT22;12045;60.214;24.724;2024-01-07T06:51:49;-17.80;99.90
23729;DHT22;12045;60.214;24.724;2024-01-07T06:54:17;-17.20;99.90
23729;DHT22;12045;60.214;24.724;2024-01-07T06:56:46;-17.80;99.90
23729;DHT22;12045;60.214;24.724;2024-01-07T06:59:14;-17.90;99.90
23729;DHT22;12045;60.214;24.724;2024-01-07T07:01:43;-17.80;99.90
23729;DHT22;12045;60.214;24.724;2024-01-07T07:04:13;-17.80;99.90
23729;DHT22;12045;60.214;24.724;2024-01-07T07:06:42;-17.80;99.90
23729;DHT22;12045;60.214;24.724;2024-01-07T07:09:12;-17.80;99.90
23729;DHT22;12045;60.214;24.724;2024-01-07T07:11:41;-17.60;99.90
23729;DHT22;12045;60.214;24.724;2024-01-07T07:14:10;-17.40;99.90
23729;DHT22;12045;60.214;24.724;2024-01-07T07:16:37;-17.20;99.90
23729;DHT22;12045;60.214;24.724;2024-01-07T07:19:06;-17.50;99.90
23729;DHT22;12045;60.214;24.724;2024-01-07T07:21:35;-17.60;99.90
23729;DHT22;12045;60.214;24.724;2024-01-07T07:24:03;-17.60;99.90
23729;DHT22;12045;60.214;24.724;2024-01-07T07:26:32;-17.20;99.90
23729;DHT22;12045;60.214;24.724;2024-01-07T07:29:00;-17.30;99.90
23729;DHT22;12045;60.214;24.724;2024-01-07T07:31:30;-16.80;99.90
23729;DHT22;12045;60.214;24.724;2024-01-07T07:33:59;-17.30;99.90
23729;DHT22;12045;60.214;24.724;2024-01-07T07:36:26;-17.80;99.90
23729;DHT22;12045;60.214;24.724;2024-01-07T07:38:55;-17.60;99.90
23729;DHT22;12045;60.214;24.724;2024-01-07T07:41:23;-17.70;99.90
23729;DHT22;12045;60.214;24.724;2024-01-07T07:43:54;-17.30;99.90
23729;DHT22;12045;60.214;24.724;2024-01-07T07:46:23;-17.50;99.90
23729;DHT22;12045;60.214;24.724;2024-01-07T07:48:50;-18.00;99.90
23729;DHT22;12045;60.214;24.724;2024-01-07T07:51:21;-17.50;99.90
23729;DHT22;12045;60.214;24.724;2024-01-07T07:53:49;-17.90;99.90
23729;DHT22;12045;60.214;24.724;2024-01-07T07:56:18;-17.90;99.90
23729;DHT22;12045;60.214;24.724;2024-01-07T07:58:46;-18.00;99.90
23729;DHT22;12045;60.214;24.724;2024-01-07T08:01:13;-18.00;99.90
23729;DHT22;12045;60.214;24.724;2024-01-07T08:03:41;-18.00;99.90
23729;DHT22;12045;60.214;24.724;2024-01-07T08:06:10;-17.60;99.90
23729;DHT22;12045;60.214;24.724;2024-01-07T08:08:39;-17.80;99.90
23729;DHT22;12045;60.214;24.724;2024-01-07T08:11:08;-18.00;99.90
23729;DHT22;12045;60.214;24.724;2024-01-07T08:13:38;-17.40;99.90
23729;DHT22;12045;60.214;24.724;2024-01-07T08:16:07;-17.80;99.90
23729;DHT22;12045;60.214;24.724;2024-01-07T08:18:38;-17.80;99.90
23729;DHT22;12045;60.214;24.724;2024-01-07T08:21:07;-17.70;99.90
23729;DHT22;12045;60.214;24.724;2024-01-07T08:23:37;-17.40;99.90
23729;DHT22;12045;60.214;24.724;2024-01-07T08:26:06;-18.00;99.90
23729;DHT22;12045;60.214;24.724;2024-01-07T08:28:33;-17.30;99.90
23729;DHT22;12045;60.214;24.724;2024-01-07T08:31:01;-17.20;99.90
23729;DHT22;12045;60.214;24.724;2024-01-07T08:33:28;-17.20;99.90
23729;DHT22;12045;60.214;24.724;2024-01-07T08:35:59;-17.00;99.90
23729;DHT22;12045;60.214;24.724;2024-01-07T08:38:29;-17.40;99.90
23729;DHT22;12045;60.214;24.724;2024-01-07T08:40:58;-17.20;99.90
23729;DHT22;12045;60.214;24.724;2024-01-07T08:43:29;-17.30;99.90
23729;DHT22;12045;60.214;24.724;2024-01-07T08:45:57;-17.20;99.90
23729;DHT22;12045;60.214;24.724;2024-01-07T08:48:25;-17.10;99.90
23729;DHT22;12045;60.214;24.724;2024-01-07T08:50:55;-16.90;99.90
23729;DHT22;12045;60.214;24.724;2024-01-07T08:53:23;-16.90;99.90
23729;DHT22;12045;60.214;24.724;2024-01-07T08:55:52;-16.70;99.90
23729;DHT22;12045;60.214;24.724;2024-01-07T08:58:20;-16.70;99.90
23729;DHT22;12045;60.214;24.724;2024-01-07T09:00:49;-16.60;99.90
23729;DHT22;12045;60.214;24.724;2024-01-07T09:03:16;-16.80;99.90
23729;DHT22;12045;60.214;24.724;2024-01-07T09:05:46;-16.30;99.90
23729;DHT22;12045;60.214;24.724;2024-01-07T09:08:13;-15.90;99.90
23729;DHT22;12045;60.214;24.724;2024-01-07T09:10:44;-15.40;99.90
23729;DHT22;12045;60.214;24.724;2024-01-07T09:13:17;-15.20;99.90
23729;DHT22;12045;60.214;24.724;2024-01-07T09:15:44;-15.00;99.90
23729;DHT22;12045;60.214;24.724;2024-01-07T09:18:14;-15.00;99.90
23729;DHT22;12045;60.214;24.724;2024-01-07T09:20:44;-14.80;99.90
23729;DHT22;12045;60.214;24.724;2024-01-07T09:23:12;-13.30;99.90
23729;DHT22;12045;60.214;24.724;2024-01-07T09:25:39;-14.60;99.90
23729;DHT22;12045;60.214;24.724;2024-01-07T09:28:10;-14.70;99.90
23729;DHT22;12045;60.214;24.724;2024-01-07T09:30:39;-14.90;99.90
23729;DHT22;12045;60.214;24.724;2024-01-07T09:33:09;-14.60;99.90
23729;DHT22;12045;60.214;24.724;2024-01-07T09:35:37;-14.50;99.90
23729;DHT22;12045;60.214;24.724;2024-01-07T09:38:07;-14.50;99.90
23729;DHT22;12045;60.214;24.724;2024-01-07T09:40:39;-14.70;99.90
23729;DHT22;12045;60.214;24.724;2024-01-07T09:45:38;-15.20;99.90
23729;DHT22;12045;60.214;24.724;2024-01-07T09:48:07;-15.50;99.90
23729;DHT22;12045;60.214;24.724;2024-01-07T09:50:36;-15.40;99.90
23729;DHT22;12045;60.214;24.724;2024-01-07T09:53:03;-15.30;99.90
23729;DHT22;12045;60.214;24.724;2024-01-07T09:55:43;-15.00;99.90
23729;DHT22;12045;60.214;24.724;2024-01-07T09:58:17;-14.80;99.90
23729;DHT22;12045;60.214;24.724;2024-01-07T10:00:47;-14.90;99.90
23729;DHT22;12045;60.214;24.724;2024-01-07T10:03:19;-14.70;99.90
23729;DHT22;12045;60.214;24.724;2024-01-07T10:05:48;-15.40;99.90
23729;DHT22;12045;60.214;24.724;2024-01-07T10:08:18;-15.00;99.90
23729;DHT22;12045;60.214;24.724;2024-01-07T10:10:52;-15.10;99.90
23729;DHT22;12045;60.214;24.724;2024-01-07T10:13:22;-15.20;99.90
23729;DHT22;12045;60.214;24.724;2024-01-07T10:15:49;-14.80;99.90
23729;DHT22;12045;60.214;24.724;2024-01-07T10:18:25;-15.00;99.90
23729;DHT22;12045;60.214;24.724;2024-01-07T10:21:06;-15.00;99.90
23729;DHT22;12045;60.214;24.724;2024-01-07T10:23:36;-14.90;99.90
23729;DHT22;12045;60.214;24.724;2024-01-07T10:26:06;-14.30;99.90
23729;DHT22;12045;60.214;24.724;2024-01-07T10:28:49;-14.80;99.90
23729;DHT22;12045;60.214;24.724;2024-01-07T10:31:17;-14.80;99.90
23729;DHT22;12045;60.214;24.724;2024-01-07T10:33:48;-14.70;99.90
23729;DHT22;12045;60.214;24.724;2024-01-07T10:36:18;-14.50;99.90
23729;DHT22;12045;60.214;24.724;2024-01-07T10:38:49;-14.60;99.90
23729;DHT22;12045;60.214;24.724;2024-01-07T10:41:18;-14.40;99.90
23729;DHT22;12045;60.214;24.724;2024-01-07T10:43:47;-14.50;99.90
23729;DHT22;12045;60.214;24.724;2024-01-07T10:46:16;-14.60;99.90
23729;DHT22;12045;60.214;24.724;2024-01-07T10:48:54;-14.70;99.90
23729;DHT22;12045;60.214;24.724;2024-01-07T10:51:24;-14.50;99.90
23729;DHT22;12045;60.214;24.724;2024-01-07T10:53:55;-14.60;99.90
23729;DHT22;12045;60.214;24.724;2024-01-07T10:56:28;-15.20;99.90
23729;DHT22;12045;60.214;24.724;2024-01-07T10:58:59;-14.70;99.90
23729;DHT22;12045;60.214;24.724;2024-01-07T11:01:27;-14.50;99.90
23729;DHT22;12045;60.214;24.724;2024-01-07T11:04:08;-14.50;99.90
23729;DHT22;12045;60.214;24.724;2024-01-07T11:06:59;-14.30;99.90
23729;DHT22;12045;60.214;24.724;2024-01-07T11:12:21;-14.20;99.90
23729;DHT22;12045;60.214;24.724;2024-01-07T11:14:50;-14.30;99.90
23729;DHT22;12045;60.214;24.724;2024-01-07T11:17:41;-14.20;99.90
23729;DHT22;12045;60.214;24.724;2024-01-07T11:20:17;-14.10;99.90
23729;DHT22;12045;60.214;24.724;2024-01-07T11:22:50;-14.20;99.90
23729;DHT22;12045;60.214;24.724;2024-01-07T11:25:31;-14.30;99.90
23729;DHT22;12045;60.214;24.724;2024-01-07T11:28:01;-14.30;99.90
23729;DHT22;12045;60.214;24.724;2024-01-07T11:30:30;-14.60;99.90
23729;DHT22;12045;60.214;24.724;2024-01-07T11:33:05;-14.30;99.90
23729;DHT22;12045;60.214;24.724;2024-01-07T11:35:59;-14.20;99.90
23729;DHT22;12045;60.214;24.724;2024-01-07T11:38:30;-14.20;99.90
23729;DHT22;12045;60.214;24.724;2024-01-07T11:41:00;-14.30;99.90
23729;DHT22;12045;60.214;24.724;2024-01-07T11:43:32;-14.30;99.90
23729;DHT22;12045;60.214;24.724;2024-01-07T11:46:03;-14.20;99.90
23729;DHT22;12045;60.214;24.724;2024-01-07T11:48:33;-14.30;99.90
23729;DHT22;12045;60.214;24.724;2024-01-07T11:51:04;-14.50;99.90
23729;DHT22;12045;60.214;24.724;2024-01-07T11:53:33;-14.30;99.90
23729;DHT22;12045;60.214;24.724;2024-01-07T11:56:04;-14.40;99.90
23729;DHT22;12045;60.214;24.724;2024-01-07T11:58:32;-14.10;99.90
23729;DHT22;12045;60.214;24.724;2024-01-07T12:01:01;-14.10;99.90
23729;DHT22;12045;60.214;24.724;2024-01-07T12:03:30;-14.10;99.90
23729;DHT22;12045;60.214;24.724;2024-01-07T12:06:00;-14.40;99.90
23729;DHT22;12045;60.214;24.724;2024-01-07T12:08:30;-14.40;99.90
23729;DHT22;12045;60.214;24.724;2024-01-07T12:10:59;-14.40;99.90
23729;DHT22;12045;60.214;24.724;2024-01-07T12:13:28;-14.30;99.90
23729;DHT22;12045;60.214;24.724;2024-01-07T12:15:55;-14.10;99.90
23729;DHT22;12045;60.214;24.724;2024-01-07T12:18:24;-14.00;99.90
23729;DHT22;12045;60.214;24.724;2024-01-07T12:20:57;-14.00;99.90
23729;DHT22;12045;60.214;24.724;2024-01-07T12:23:28;-14.00;99.90
23729;DHT22;12045;60.214;24.724;2024-01-07T12:26:07;-13.80;99.90
23729;DHT22;12045;60.214;24.724;2024-01-07T12:28:37;-14.00;99.90
23729;DHT22;12045;60.214;24.724;2024-01-07T12:31:09;-13.80;99.90
23729;DHT22;12045;60.214;24.724;2024-01-07T12:33:37;-13.90;99.90
23729;DHT22;12045;60.214;24.724;2024-01-07T12:36:06;-13.90;99.90
23729;DHT22;12045;60.214;24.724;2024-01-07T12:38:39;-14.10;99.90
23729;DHT22;12045;60.214;24.724;2024-01-07T12:41:07;-14.40;99.90
23729;DHT22;12045;60.214;24.724;2024-01-07T12:43:37;-14.40;99.90
23729;DHT22;12045;60.214;24.724;2024-01-07T12:46:06;-14.50;99.90
23729;DHT22;12045;60.214;24.724;2024-01-07T12:48:37;-14.40;99.90
23729;DHT22;12045;60.214;24.724;2024-01-07T12:51:06;-14.30;99.90
23729;DHT22;12045;60.214;24.724;2024-01-07T12:53:34;-14.60;99.90
23729;DHT22;12045;60.214;24.724;2024-01-07T12:56:04;-14.00;99.90
23729;DHT22;12045;60.214;24.724;2024-01-07T12:58:32;-14.70;99.90
23729;DHT22;12045;60.214;24.724;2024-01-07T13:01:02;-14.10;99.90
23729;DHT22;12045;60.214;24.724;2024-01-07T13:03:32;-13.90;99.90
23729;DHT22;12045;60.214;24.724;2024-01-07T13:06:02;-15.00;99.90
23729;DHT22;12045;60.214;24.724;2024-01-07T13:08:31;-15.00;99.90
23729;DHT22;12045;60.214;24.724;2024-01-07T13:11:01;-15.10;99.90
23729;DHT22;12045;60.214;24.724;2024-01-07T13:13:29;-15.20;99.90
23729;DHT22;12045;60.214;24.724;2024-01-07T13:16:00;-15.10;99.90
23729;DHT22;12045;60.214;24.724;2024-01-07T13:18:30;-15.10;99.90
23729;DHT22;12045;60.214;24.724;2024-01-07T13:23:33;-15.20;99.90
23729;DHT22;12045;60.214;24.724;2024-01-07T13:26:02;-15.40;99.90
23729;DHT22;12045;60.214;24.724;2024-01-07T13:28:34;-15.50;99.90
23729;DHT22;12045;60.214;24.724;2024-01-07T13:31:05;-15.40;99.90
23729;DHT22;12045;60.214;24.724;2024-01-07T13:33:34;-15.20;99.90
23729;DHT22;12045;60.214;24.724;2024-01-07T13:36:03;-15.10;99.90
23729;DHT22;12045;60.214;24.724;2024-01-07T13:38:36;-14.80;99.90
23729;DHT22;12045;60.214;24.724;2024-01-07T13:41:12;-15.00;99.90
23729;DHT22;12045;60.214;24.724;2024-01-07T13:43:43;-14.80;99.90
23729;DHT22;12045;60.214;24.724;2024-01-07T13:46:13;-15.30;99.90
23729;DHT22;12045;60.214;24.724;2024-01-07T13:48:42;-15.30;99.90
23729;DHT22;12045;60.214;24.724;2024-01-07T13:51:11;-15.30;99.90
23729;DHT22;12045;60.214;24.724;2024-01-07T13:53:40;-15.20;99.90
23729;DHT22;12045;60.214;24.724;2024-01-07T13:56:14;-15.10;99.90
23729;DHT22;12045;60.214;24.724;2024-01-07T13:58:43;-15.10;99.90
23729;DHT22;12045;60.214;24.724;2024-01-07T14:01:16;-15.10;99.90
23729;DHT22;12045;60.214;24.724;2024-01-07T14:03:45;-15.00;99.90
23729;DHT22;12045;60.214;24.724;2024-01-07T14:06:14;-15.00;99.90
23729;DHT22;12045;60.214;24.724;2024-01-07T14:08:43;-15.00;99.90
23729;DHT22;12045;60.214;24.724;2024-01-07T14:11:13;-15.10;99.90
23729;DHT22;12045;60.214;24.724;2024-01-07T14:13:42;-15.10;99.90
23729;DHT22;12045;60.214;24.724;2024-01-07T14:16:14;-15.10;99.90
23729;DHT22;12045;60.214;24.724;2024-01-07T14:18:43;-15.20;99.90
23729;DHT22;12045;60.214;24.724;2024-01-07T14:21:12;-14.90;99.90
23729;DHT22;12045;60.214;24.724;2024-01-07T14:23:41;-15.10;99.90
23729;DHT22;12045;60.214;24.724;2024-01-07T14:26:10;-14.90;99.90
23729;DHT22;12045;60.214;24.724;2024-01-07T14:28:40;-15.00;99.90
23729;DHT22;12045;60.214;24.724;2024-01-07T14:31:07;-15.00;99.90
23729;DHT22;12045;60.214;24.724;2024-01-07T14:33:39;-15.10;99.90
23729;DHT22;12045;60.214;24.724;2024-01-07T14:36:09;-15.50;99.90
23729;DHT22;12045;60.214;24.724;2024-01-07T14:38:44;-15.40;99.90
23729;DHT22;12045;60.214;24.724;2024-01-07T14:41:14;-15.70;99.90
23729;DHT22;12045;60.214;24.724;2024-01-07T14:43:42;-15.80;99.90
23729;DHT22;12045;60.214;24.724;2024-01-07T14:46:09;-15.80;99.90
23729;DHT22;12045;60.214;24.724;2024-01-07T14:48:38;-15.70;99.90
23729;DHT22;12045;60.214;24.724;2024-01-07T14:51:06;-15.70;99.90
23729;DHT22;12045;60.214;24.724;2024-01-07T14:53:35;-15.80;99.90
23729;DHT22;12045;60.214;24.724;2024-01-07T14:56:02;-15.80;99.90
23729;DHT22;12045;60.214;24.724;2024-01-07T14:58:31;-15.10;99.90
23729;DHT22;12045;60.214;24.724;2024-01-07T15:00:59;-15.90;99.90
23729;DHT22;12045;60.214;24.724;2024-01-07T15:03:29;-15.90;99.90
23729;DHT22;12045;60.214;24.724;2024-01-07T15:06:03;-15.90;99.90
23729;DHT22;12045;60.214;24.724;2024-01-07T15:08:32;-15.80;99.90
23729;DHT22;12045;60.214;24.724;2024-01-07T15:11:00;-15.90;99.90
23729;DHT22;12045;60.214;24.724;2024-01-07T15:13:28;-15.90;99.90
23729;DHT22;12045;60.214;24.724;2024-01-07T15:15:57;-15.90;99.90
23729;DHT22;12045;60.214;24.724;2024-01-07T15:18:26;-15.90;99.90
23729;DHT22;12045;60.214;24.724;2024-01-07T15:20:55;-15.80;99.90
23729;DHT22;12045;60.214;24.724;2024-01-07T15:23:23;-15.60;99.90
23729;DHT22;12045;60.214;24.724;2024-01-07T15:25:53;-15.70;99.90
23729;DHT22;12045;60.214;24.724;2024-01-07T15:28:21;-15.50;99.90
23729;DHT22;12045;60.214;24.724;2024-01-07T15:30:52;-15.40;99.90
23729;DHT22;12045;60.214;24.724;2024-01-07T15:33:21;-15.20;99.90